METAR Data
IDs: Format: Raw Decoded Include TAF

Data at: 1832 UTC 26 Sep 2021

METAR for:KFDW (Winnsboro/Fairfield, SC, US)
Text:KFDW 261815Z AUTO 00000KT 10SM SCT050 26/12 A3011 RMK AO1
Temperature: 26.0°C ( 79°F)
Dewpoint: 12.0°C ( 54°F) [RH = 42%]
Pressure (altimeter):30.11 inches Hg (1019.7 mb)
Winds:calm
Visibility:10 or more sm (16+ km)
Ceiling:at least 12,000 feet AGL
Clouds: scattered clouds at 5000 feet AGL
QC Flag:automated observation with no human augmentation

TAF for:KFDW (Winnsboro/Fairfield, SC, US)
Text:No data found